createdAt,value
2022-08-12T00:01:14.567Z,6.30
2022-08-12T00:04:00.877Z,5.90
2022-08-12T00:06:47.745Z,6.60
2022-08-12T00:09:33.541Z,7.97
2022-08-12T00:12:19.788Z,8.13
2022-08-12T00:15:06.094Z,7.05
2022-08-12T00:17:52.865Z,6.35
2022-08-12T00:20:38.665Z,6.43
2022-08-12T00:23:25.065Z,5.93
2022-08-12T00:26:23.386Z,5.65
2022-08-12T00:29:12.559Z,5.80
2022-08-12T00:32:00.786Z,5.18
2022-08-12T00:34:49.606Z,5.60
2022-08-12T00:37:38.622Z,4.93
2022-08-12T00:40:26.857Z,5.78
2022-08-12T00:42:56.847Z,5.70
2022-08-12T00:45:25.047Z,5.53
2022-08-12T00:47:54.212Z,5.50
2022-08-12T00:50:24.176Z,5.67
2022-08-12T00:52:53.350Z,5.32
2022-08-12T00:55:21.538Z,5.88
2022-08-12T00:57:50.755Z,5.57
2022-08-12T01:00:25.403Z,5.70
2022-08-12T01:02:57.768Z,5.70
2022-08-12T01:05:44.969Z,5.53
2022-08-12T01:08:50.842Z,5.30
2022-08-12T01:11:34.880Z,5.60
2022-08-12T01:14:03.249Z,5.65
2022-08-12T01:16:31.431Z,6.10
2022-08-12T01:19:00.569Z,5.38
2022-08-12T01:21:27.970Z,5.82
2022-08-12T01:24:31.743Z,5.18
2022-08-12T01:27:01.612Z,5.75
2022-08-12T01:29:33.460Z,5.77
2022-08-12T01:32:09.070Z,5.45
2022-08-12T01:34:39.832Z,5.93
2022-08-12T01:37:10.102Z,5.60
2022-08-12T01:40:35.955Z,5.18
2022-08-12T01:42:47.854Z,5.87
2022-08-12T01:45:17.871Z,5.57
2022-08-12T01:48:04.965Z,5.68
2022-08-12T01:50:51.014Z,5.28
2022-08-12T01:53:21.223Z,5.10
2022-08-12T01:55:50.498Z,5.80
2022-08-12T01:58:57.511Z,5.45
2022-08-12T02:01:30.863Z,5.50
2022-08-12T02:04:32.738Z,5.78
2022-08-12T02:08:03.713Z,6.07
2022-08-12T02:11:21.758Z,5.37
2022-08-12T02:13:52.053Z,5.00
2022-08-12T02:16:54.844Z,5.40
2022-08-12T02:19:43.643Z,5.03
2022-08-12T02:22:32.381Z,5.60
2022-08-12T02:25:15.878Z,5.17
2022-08-12T02:27:46.658Z,5.10
2022-08-12T02:30:20.080Z,4.88
2022-08-12T02:32:50.689Z,5.07
2022-08-12T02:35:25.668Z,5.22
2022-08-12T02:38:01.015Z,5.10
2022-08-12T02:40:29.673Z,5.60
2022-08-12T02:43:38.378Z,5.35
2022-08-12T02:46:14.421Z,5.57
2022-08-12T02:48:51.115Z,5.28
2022-08-12T02:51:23.825Z,5.60
2022-08-12T02:54:04.343Z,5.07
2022-08-12T02:56:41.293Z,5.05
2022-08-12T02:59:12.489Z,4.97
2022-08-12T03:01:53.732Z,4.78
2022-08-12T03:04:44.812Z,5.00
2022-08-12T03:07:20.604Z,4.90
2022-08-12T03:10:04.320Z,5.40
2022-08-12T03:12:49.465Z,4.35
2022-08-12T03:15:23.048Z,4.85
2022-08-12T03:18:26.027Z,4.90
2022-08-12T03:20:58.624Z,5.00
2022-08-12T03:23:29.571Z,5.80
2022-08-12T03:26:01.021Z,5.32
2022-08-12T03:28:51.148Z,5.10
2022-08-12T03:31:25.019Z,5.30
2022-08-12T03:34:01.977Z,5.55
2022-08-12T03:36:35.532Z,4.72
2022-08-12T03:39:17.075Z,4.75
2022-08-12T03:41:57.994Z,5.18
2022-08-12T03:44:56.324Z,5.53
2022-08-12T03:47:48.302Z,5.47
2022-08-12T03:50:35.649Z,4.90
2022-08-12T03:53:24.795Z,5.30
2022-08-12T03:56:10.999Z,5.15
2022-08-12T03:58:58.334Z,5.07
2022-08-12T04:01:28.155Z,5.38
2022-08-12T04:03:55.939Z,5.40
2022-08-12T04:06:35.137Z,5.18
2022-08-12T04:09:16.467Z,5.53
2022-08-12T04:12:04.688Z,5.60
2022-08-12T04:14:33.119Z,5.93
2022-08-12T04:17:01.872Z,5.70
2022-08-12T04:19:30.155Z,5.43
2022-08-12T04:22:01.679Z,5.25
2022-08-12T04:24:38.137Z,5.10
2022-08-12T04:27:10.531Z,4.95
2022-08-12T04:30:30.291Z,5.60
2022-08-12T04:32:27.785Z,5.57
2022-08-12T04:34:56.196Z,5.80
2022-08-12T04:37:24.051Z,4.87
2022-08-12T04:39:52.925Z,5.50
2022-08-12T04:42:21.550Z,5.15
2022-08-12T04:44:49.137Z,5.10
2022-08-12T04:47:17.569Z,5.28
2022-08-12T04:49:48.944Z,5.30
2022-08-12T04:52:17.148Z,4.93
2022-08-12T04:54:45.634Z,5.38
2022-08-12T04:57:13.169Z,5.35
2022-08-12T04:59:48.098Z,5.13
2022-08-12T05:02:21.089Z,5.63
2022-08-12T05:05:00.761Z,5.20
2022-08-12T05:07:30.266Z,5.75
2022-08-12T05:10:01.828Z,5.22
2022-08-12T05:12:38.282Z,4.75
2022-08-12T05:15:19.751Z,5.13
2022-08-12T05:17:55.819Z,5.10
2022-08-12T05:20:26.218Z,5.50
2022-08-12T05:23:12.889Z,4.97
2022-08-12T05:25:49.877Z,5.60
2022-08-12T05:28:18.520Z,4.80
2022-08-12T05:30:46.613Z,5.00
2022-08-12T05:33:17.562Z,5.00
2022-08-12T05:35:47.923Z,4.55
2022-08-12T05:38:37.468Z,4.90
2022-08-12T05:41:19.339Z,5.27
2022-08-12T05:43:54.785Z,5.35
2022-08-12T05:46:24.095Z,5.50
2022-08-12T05:48:54.559Z,5.40
2022-08-12T05:51:40.178Z,5.40
2022-08-12T05:54:11.645Z,5.50
2022-08-12T05:56:41.742Z,5.40
2022-08-12T05:59:12.542Z,5.43
2022-08-12T06:02:10.417Z,4.80
2022-08-12T06:04:30.730Z,5.00
2022-08-12T06:06:58.622Z,5.10
2022-08-12T06:09:30.736Z,4.93
2022-08-12T06:12:05.712Z,5.50
2022-08-12T06:14:38.726Z,5.25
2022-08-12T06:17:09.505Z,4.90
2022-08-12T06:20:27.433Z,5.10
2022-08-12T06:22:28.623Z,5.03
2022-08-12T06:24:56.471Z,5.18
2022-08-12T06:27:24.442Z,5.38
2022-08-12T06:30:06.819Z,5.45
2022-08-12T06:32:42.909Z,4.87
2022-08-12T06:35:23.757Z,5.05
2022-08-12T06:37:57.989Z,5.38
2022-08-12T06:40:44.536Z,5.43
2022-08-12T06:43:13.404Z,5.20
2022-08-12T06:45:47.533Z,5.13
2022-08-12T06:48:16.727Z,5.57
2022-08-12T06:50:44.656Z,5.38
2022-08-12T06:53:13.449Z,5.38
2022-08-12T06:55:57.886Z,5.50
2022-08-12T06:58:26.050Z,5.07
2022-08-12T07:00:54.847Z,5.60
2022-08-12T07:03:28.890Z,5.22
2022-08-12T07:05:58.620Z,5.47
2022-08-12T07:08:36.368Z,5.40
2022-08-12T07:11:09.009Z,5.20
2022-08-12T07:14:02.338Z,5.85
2022-08-12T07:16:51.891Z,5.90
2022-08-12T07:19:20.644Z,5.20
2022-08-12T07:22:02.177Z,5.93
2022-08-12T07:24:31.125Z,5.20
2022-08-12T07:26:59.411Z,5.30
2022-08-12T07:30:03.764Z,6.10
2022-08-12T07:32:16.184Z,5.13
2022-08-12T07:34:43.639Z,6.00
2022-08-12T07:37:11.190Z,6.30
2022-08-12T07:39:50.937Z,6.60
2022-08-12T07:42:26.439Z,5.70
2022-08-12T07:44:56.726Z,5.75
2022-08-12T07:47:25.425Z,5.45
2022-08-12T07:50:04.722Z,5.67
2022-08-12T07:52:35.980Z,5.47
2022-08-12T07:55:04.783Z,6.15
2022-08-12T07:57:35.461Z,5.72
2022-08-12T08:00:06.977Z,5.63
2022-08-12T08:02:38.674Z,5.40
2022-08-12T08:05:07.031Z,6.20
2022-08-12T08:07:34.552Z,5.63
2022-08-12T08:10:07.145Z,5.53
2022-08-12T08:12:53.485Z,6.07
2022-08-12T08:15:44.447Z,6.07
2022-08-12T08:18:26.049Z,5.88
2022-08-12T08:20:56.017Z,5.90
2022-08-12T08:23:46.504Z,5.80
2022-08-12T08:26:22.933Z,5.60
2022-08-12T08:28:50.893Z,6.10
2022-08-12T08:31:19.033Z,5.93
2022-08-12T08:34:05.014Z,6.18
2022-08-12T08:36:37.312Z,6.05
2022-08-12T08:39:05.423Z,6.05
2022-08-12T08:42:15.455Z,6.40
2022-08-12T08:44:39.837Z,5.75
2022-08-12T08:47:08.810Z,6.05
2022-08-12T08:49:37.422Z,6.10
2022-08-12T08:52:06.960Z,5.68
2022-08-12T08:54:35.514Z,5.37
2022-08-12T08:57:05.455Z,5.85
2022-08-12T08:59:33.179Z,5.93
2022-08-12T09:02:03.629Z,5.60
2022-08-12T09:05:13.646Z,5.40
2022-08-12T09:07:51.972Z,5.47
2022-08-12T09:10:23.472Z,5.43
2022-08-12T09:13:22.931Z,5.88
2022-08-12T09:15:57.476Z,5.45
2022-08-12T09:18:33.215Z,5.88
2022-08-12T09:21:04.084Z,5.73
2022-08-12T09:23:58.325Z,5.50
2022-08-12T09:26:28.341Z,6.35
2022-08-12T09:29:00.702Z,5.78
2022-08-12T09:32:06.278Z,5.75
2022-08-12T09:34:29.520Z,5.87
2022-08-12T09:37:19.463Z,5.97
2022-08-12T09:40:06.479Z,5.60
2022-08-12T09:43:16.762Z,5.90
2022-08-12T09:46:14.344Z,5.50
2022-08-12T09:48:39.093Z,6.10
2022-08-12T09:51:21.625Z,6.20
2022-08-12T09:54:05.568Z,5.70
2022-08-12T09:57:01.038Z,6.20
2022-08-12T10:00:15.921Z,5.95
2022-08-12T10:02:42.114Z,5.50
2022-08-12T10:05:00.822Z,5.63
2022-08-12T10:07:39.370Z,5.78
2022-08-12T10:10:25.220Z,5.88
2022-08-12T10:13:34.449Z,6.72
2022-08-12T10:16:06.633Z,5.70
2022-08-12T10:18:51.829Z,5.60
2022-08-12T10:21:23.788Z,6.10
2022-08-12T10:23:56.761Z,5.75
2022-08-12T10:26:44.579Z,6.40
2022-08-12T10:30:01.617Z,5.60
2022-08-12T10:32:44.813Z,5.47
2022-08-12T10:35:10.031Z,6.10
2022-08-12T10:38:38.266Z,5.80
2022-08-12T10:40:33.789Z,5.95
2022-08-12T10:43:20.559Z,5.13
2022-08-12T10:45:58.529Z,5.85
2022-08-12T10:48:33.720Z,5.55
2022-08-12T10:52:02.887Z,5.57
2022-08-12T10:54:00.111Z,4.97
2022-08-12T10:56:34.481Z,5.80
2022-08-12T10:59:05.625Z,5.60
2022-08-12T11:04:14.356Z,5.70
2022-08-12T11:04:39.485Z,5.32
2022-08-12T11:08:34.801Z,6.30
2022-08-12T11:10:03.002Z,5.90
2022-08-12T11:12:55.830Z,5.50
2022-08-12T11:15:33.090Z,5.72
2022-08-12T11:18:18.256Z,5.82
2022-08-12T11:20:48.566Z,6.10
2022-08-12T11:23:25.126Z,6.33
2022-08-12T11:26:07.195Z,5.63
2022-08-12T11:28:38.070Z,6.18
2022-08-12T11:31:12.105Z,6.07
2022-08-12T11:34:06.372Z,6.53
2022-08-12T11:36:31.504Z,5.60
2022-08-12T11:39:04.454Z,5.22
2022-08-12T11:41:33.879Z,5.95
2022-08-12T11:44:34.909Z,5.60
2022-08-12T11:46:52.914Z,6.05
2022-08-12T11:49:30.668Z,5.87
2022-08-12T11:52:00.597Z,5.20
2022-08-12T11:54:29.747Z,6.30
2022-08-12T11:57:00.534Z,6.05
2022-08-12T12:02:20.794Z,5.30
2022-08-12T12:04:52.630Z,6.00
2022-08-12T12:08:36.314Z,5.50
2022-08-12T12:10:16.197Z,5.90
2022-08-12T12:12:49.392Z,5.70
2022-08-12T12:15:24.747Z,5.93
2022-08-12T12:17:56.030Z,6.10
2022-08-12T12:20:26.181Z,5.70
2022-08-12T12:22:58.223Z,5.75
2022-08-12T12:26:06.869Z,5.85
2022-08-12T12:28:37.155Z,5.90
2022-08-12T12:31:02.028Z,6.00
2022-08-12T12:33:57.124Z,6.28
2022-08-12T12:36:24.015Z,5.78
2022-08-12T12:38:56.852Z,5.97
2022-08-12T12:42:44.675Z,5.97
2022-08-12T12:44:13.342Z,6.28
2022-08-12T12:46:54.791Z,6.00
2022-08-12T12:49:27.493Z,6.30
2022-08-12T12:52:18.502Z,6.28
2022-08-12T12:54:53.021Z,6.00
2022-08-12T12:57:21.585Z,6.10
2022-08-12T13:00:18.695Z,6.25
2022-08-12T13:02:58.697Z,5.60
2022-08-12T13:05:42.496Z,5.63
2022-08-12T13:08:28.304Z,5.33
2022-08-12T13:11:05.129Z,5.88
2022-08-12T13:14:06.885Z,5.57
2022-08-12T13:16:23.075Z,6.03
2022-08-12T13:18:53.999Z,5.65
2022-08-12T13:21:33.368Z,5.20
2022-08-12T13:24:09.626Z,5.55
2022-08-12T13:26:40.807Z,5.82
2022-08-12T13:29:11.473Z,5.90
2022-08-12T13:31:46.443Z,5.93
2022-08-12T13:34:34.597Z,5.10
2022-08-12T13:37:09.199Z,6.00
2022-08-12T13:39:39.390Z,5.72
2022-08-12T13:42:13.893Z,6.30
2022-08-12T13:44:42.399Z,5.82
2022-08-12T13:47:19.480Z,5.23
2022-08-12T13:49:54.893Z,5.15
2022-08-12T13:52:23.993Z,5.75
2022-08-12T13:54:56.407Z,5.53
2022-08-12T13:57:26.711Z,5.57
2022-08-12T13:59:55.463Z,5.43
2022-08-12T14:02:23.516Z,4.85
2022-08-12T14:04:56.649Z,5.72
2022-08-12T14:07:26.081Z,5.30
2022-08-12T14:10:16.331Z,5.82
2022-08-12T14:12:54.715Z,6.30
2022-08-12T14:15:36.819Z,5.35
2022-08-12T14:18:08.703Z,5.60
2022-08-12T14:20:36.511Z,4.88
2022-08-12T14:24:01.496Z,4.68
2022-08-12T14:25:58.145Z,5.07
2022-08-12T14:28:26.627Z,4.78
2022-08-12T14:31:00.105Z,4.80
2022-08-12T14:33:44.426Z,5.40
2022-08-12T14:36:12.959Z,5.28
2022-08-12T14:38:46.270Z,4.83
2022-08-12T14:41:17.429Z,5.03
2022-08-12T14:44:04.498Z,5.20
2022-08-12T14:46:35.875Z,5.00
2022-08-12T14:49:27.479Z,5.30
2022-08-12T14:52:58.873Z,5.20
2022-08-12T14:57:00.122Z,5.20
2022-08-12T14:57:35.494Z,4.82
2022-08-12T15:00:23.790Z,5.30
2022-08-12T15:02:54.180Z,5.40
2022-08-12T15:06:04.951Z,5.50
2022-08-12T15:08:17.189Z,5.68
2022-08-12T15:10:50.151Z,5.93
2022-08-12T15:13:23.613Z,6.00
2022-08-12T15:15:53.077Z,5.97
2022-08-12T15:18:22.773Z,5.80
2022-08-12T15:20:54.743Z,5.82
2022-08-12T15:23:29.123Z,5.80
2022-08-12T15:26:06.118Z,5.90
2022-08-12T15:28:35.446Z,5.57
2022-08-12T15:31:21.292Z,6.77
2022-08-12T15:33:54.091Z,5.50
2022-08-12T15:36:54.143Z,5.68
2022-08-12T15:39:17.007Z,7.13
2022-08-12T15:41:50.219Z,6.55
2022-08-12T15:44:38.567Z,7.00
2022-08-12T15:47:07.163Z,6.15
2022-08-12T15:49:54.931Z,6.10
2022-08-12T15:52:27.530Z,5.78
2022-08-12T15:54:58.344Z,6.25
2022-08-12T15:57:27.809Z,5.40
2022-08-12T16:00:06.470Z,5.40
2022-08-12T16:02:50.509Z,5.50
2022-08-12T16:06:12.374Z,5.28
2022-08-12T16:08:17.124Z,5.47
2022-08-12T16:10:46.314Z,5.10
2022-08-12T16:13:25.227Z,5.53
2022-08-12T16:16:03.920Z,5.68
2022-08-12T16:18:39.932Z,5.35
2022-08-12T16:21:52.128Z,5.53
2022-08-12T16:24:02.193Z,5.43
2022-08-12T16:26:35.136Z,5.30
2022-08-12T16:29:15.235Z,5.15
2022-08-12T16:31:45.563Z,5.40
2022-08-12T16:34:25.738Z,5.22
2022-08-12T16:37:09.703Z,5.43
2022-08-12T16:40:01.744Z,4.70
2022-08-12T16:42:30.889Z,5.68
2022-08-12T16:45:02.146Z,5.28
2022-08-12T16:47:58.169Z,5.90
2022-08-12T16:50:19.764Z,5.73
2022-08-12T16:52:51.958Z,4.97
2022-08-12T16:55:23.698Z,5.32
2022-08-12T16:57:54.237Z,5.68
2022-08-12T17:00:24.388Z,5.80
2022-08-12T17:02:58.146Z,5.30
2022-08-12T17:05:31.069Z,5.72
2022-08-12T17:08:01.003Z,5.80
2022-08-12T17:10:36.546Z,6.07
2022-08-12T17:13:09.521Z,5.50
2022-08-12T17:15:57.169Z,5.87
2022-08-12T17:18:42.383Z,5.88
2022-08-12T17:21:17.575Z,5.45
2022-08-12T17:23:53.586Z,6.15
2022-08-12T17:26:30.831Z,5.75
2022-08-12T17:29:00.439Z,6.43
2022-08-12T17:32:00.223Z,6.65
2022-08-12T17:34:38.553Z,6.75
2022-08-12T17:37:06.729Z,6.22
2022-08-12T17:40:13.611Z,6.50
2022-08-12T17:42:32.857Z,6.53
2022-08-12T17:45:17.315Z,6.60
2022-08-12T17:48:01.000Z,7.00
2022-08-12T17:50:35.078Z,6.35
2022-08-12T17:53:03.703Z,6.10
2022-08-12T17:55:40.980Z,5.67
2022-08-12T17:58:14.022Z,6.03
2022-08-12T18:00:46.303Z,5.88
2022-08-12T18:04:04.167Z,5.53
2022-08-12T18:06:13.709Z,5.45
2022-08-12T18:08:54.604Z,5.63
2022-08-12T18:12:03.232Z,5.45
2022-08-12T18:14:32.623Z,5.53
2022-08-12T18:17:02.583Z,5.32
2022-08-12T18:19:48.543Z,6.55
2022-08-12T18:22:22.290Z,5.77
2022-08-12T18:26:10.076Z,6.53
2022-08-12T18:28:15.746Z,5.88
2022-08-12T18:30:52.763Z,5.60
2022-08-12T18:33:24.018Z,6.38
2022-08-12T18:35:53.684Z,6.37
2022-08-12T18:38:25.614Z,5.53
2022-08-12T18:41:21.742Z,5.82
2022-08-12T18:44:02.905Z,5.35
2022-08-12T18:46:53.879Z,5.68
2022-08-12T18:49:39.105Z,5.00
2022-08-12T18:52:11.706Z,5.32
2022-08-12T18:54:49.515Z,4.95
2022-08-12T18:57:45.661Z,5.00
2022-08-12T19:00:20.979Z,5.53
2022-08-12T19:02:51.127Z,5.50
2022-08-12T19:05:18.737Z,4.88
2022-08-12T19:08:01.723Z,4.82
2022-08-12T19:10:31.925Z,4.60
2022-08-12T19:13:23.434Z,5.25
2022-08-12T19:15:58.265Z,5.40
2022-08-12T19:18:31.864Z,5.25
2022-08-12T19:21:06.342Z,5.00
2022-08-12T19:23:35.599Z,4.43
2022-08-12T19:26:10.732Z,4.72
2022-08-12T19:28:41.148Z,4.70
2022-08-12T19:31:55.682Z,4.30
2022-08-12T19:38:02.992Z,5.07
2022-08-12T19:40:20.355Z,5.15
2022-08-12T19:43:19.150Z,4.90
2022-08-12T19:45:51.656Z,5.20
2022-08-12T19:48:21.804Z,4.70
2022-08-12T19:50:53.118Z,4.82
2022-08-12T19:53:24.640Z,4.60
2022-08-12T19:55:54.135Z,4.83
2022-08-12T19:58:23.323Z,4.88
2022-08-12T20:00:53.620Z,4.93
2022-08-12T20:03:38.847Z,4.30
2022-08-12T20:06:13.868Z,5.00
2022-08-12T20:08:47.897Z,4.83
2022-08-12T20:12:11.083Z,4.75
2022-08-12T20:14:05.825Z,4.88
2022-08-12T20:20:05.612Z,5.35
2022-08-12T20:22:29.569Z,4.90
2022-08-12T20:25:07.347Z,4.88
2022-08-12T20:28:04.060Z,4.90
2022-08-12T20:30:52.615Z,4.93
2022-08-12T20:33:17.882Z,5.25
2022-08-12T20:36:13.837Z,4.30
2022-08-12T20:38:40.181Z,4.20
2022-08-12T20:41:16.811Z,5.18
2022-08-12T20:43:51.933Z,4.80
2022-08-12T20:46:20.136Z,4.53
2022-08-12T20:48:54.806Z,4.50
2022-08-12T20:51:27.610Z,4.40
2022-08-12T20:53:59.115Z,4.28
2022-08-12T20:56:34.500Z,4.60
2022-08-12T20:59:14.851Z,4.18
2022-08-12T21:01:48.823Z,4.70
2022-08-12T21:04:37.072Z,4.72
2022-08-12T21:07:09.145Z,4.50
2022-08-12T21:09:44.688Z,5.05
2022-08-12T21:12:31.297Z,5.65
2022-08-12T21:15:17.542Z,4.80
2022-08-12T21:18:15.589Z,5.30
2022-08-12T21:20:54.613Z,5.82
2022-08-12T21:23:23.261Z,5.80
2022-08-12T21:26:01.139Z,5.43
2022-08-12T21:28:32.002Z,5.17
2022-08-12T21:32:35.237Z,5.60
2022-08-12T21:34:07.359Z,5.20
2022-08-12T21:36:39.732Z,5.13
2022-08-12T21:39:20.379Z,5.03
2022-08-12T21:41:51.408Z,4.75
2022-08-12T21:45:43.965Z,4.60
2022-08-12T21:47:22.479Z,4.68
2022-08-12T21:50:06.124Z,4.82
2022-08-12T21:52:40.836Z,4.00
2022-08-12T21:55:18.495Z,4.70
2022-08-12T21:57:54.404Z,4.33
2022-08-12T22:00:32.947Z,4.72
2022-08-12T22:04:02.061Z,5.18
2022-08-12T22:06:25.911Z,4.28
2022-08-12T22:09:04.022Z,4.50
2022-08-12T22:11:42.024Z,4.27
2022-08-12T22:14:21.918Z,5.13
2022-08-12T22:16:53.397Z,4.10
2022-08-12T22:19:22.810Z,4.65
2022-08-12T22:21:53.752Z,4.15
2022-08-12T22:24:26.347Z,4.20
2022-08-12T22:27:18.153Z,4.35
2022-08-12T22:30:16.850Z,3.97
2022-08-12T22:32:50.711Z,3.90
2022-08-12T22:35:56.682Z,3.70
2022-08-12T22:38:25.524Z,4.30
2022-08-12T22:41:01.911Z,3.97
2022-08-12T22:44:00.578Z,4.30
2022-08-12T22:46:52.904Z,4.63
2022-08-12T22:49:37.175Z,4.75
2022-08-12T22:52:18.515Z,5.10
2022-08-12T22:55:02.990Z,4.97
2022-08-12T22:57:49.134Z,5.43
2022-08-12T23:00:24.705Z,5.93
2022-08-12T23:03:00.577Z,5.85
2022-08-12T23:05:36.897Z,5.70
2022-08-12T23:08:29.875Z,5.45
2022-08-12T23:10:59.317Z,4.90
2022-08-12T23:13:45.594Z,5.22
2022-08-12T23:16:28.477Z,4.10
2022-08-12T23:19:09.284Z,4.63
2022-08-12T23:22:03.200Z,4.65
2022-08-12T23:24:29.934Z,4.78
2022-08-12T23:27:18.256Z,4.95
2022-08-12T23:30:05.924Z,4.75
2022-08-12T23:32:37.094Z,4.33
2022-08-12T23:35:06.997Z,4.63
2022-08-12T23:37:47.389Z,3.92
2022-08-12T23:40:22.544Z,3.95
2022-08-12T23:42:57.161Z,3.70
2022-08-12T23:45:30.865Z,3.63
2022-08-12T23:48:02.583Z,2.95
2022-08-12T23:50:34.007Z,3.22
2022-08-12T23:53:17.099Z,3.40
2022-08-12T23:55:50.120Z,3.40
2022-08-12T23:58:26.016Z,3.07
